createdAt,value
2023-05-11T00:01:39.833Z,95234.25
2023-05-11T00:04:41.524Z,95238.53
2023-05-11T00:07:43.301Z,95235.41
2023-05-11T00:10:48.475Z,95232.72
2023-05-11T00:13:50.192Z,95231.16
2023-05-11T00:16:51.847Z,95228.88
2023-05-11T00:19:53.537Z,95222.31
2023-05-11T00:22:55.193Z,95226.53
2023-05-11T00:25:58.242Z,95219.59
2023-05-11T00:28:59.902Z,95215.38
2023-05-11T00:32:01.577Z,95221.50
2023-05-11T00:35:03.321Z,95209.94
2023-05-11T00:38:05.002Z,95213.78
2023-05-11T00:41:08.458Z,95216.50
2023-05-11T00:44:10.324Z,95204.13
2023-05-11T00:47:12.091Z,95211.09
2023-05-11T00:50:14.068Z,95208.75
2023-05-11T00:53:15.846Z,95202.59
2023-05-11T00:56:18.955Z,95200.25
2023-05-11T00:59:20.717Z,95196.38
2023-05-11T01:02:22.589Z,95196.75
2023-05-11T01:05:30.263Z,95201.41
2023-05-11T01:08:39.061Z,95194.44
2023-05-11T01:11:49.085Z,95189.41
2023-05-11T01:14:58.036Z,95189.03
2023-05-11T01:18:09.095Z,95187.84
2023-05-11T01:21:14.243Z,95177.44
2023-05-11T01:24:29.288Z,95180.56
2023-05-11T01:28:24.700Z,95194.47
2023-05-11T01:31:31.003Z,95191.34
2023-05-11T01:34:39.564Z,95185.19
2023-05-11T01:37:46.127Z,95184.44
2023-05-11T01:40:54.317Z,95193.31
2023-05-11T01:44:00.424Z,95191.34
2023-05-11T01:47:04.685Z,95190.59
2023-05-11T01:50:08.671Z,95186.31
2023-05-11T01:53:12.256Z,95188.63
2023-05-11T01:56:15.290Z,95189.00
2023-05-11T01:59:17.839Z,95191.31
2023-05-11T02:02:21.463Z,95194.03
2023-05-11T02:05:24.987Z,95195.97
2023-05-11T02:08:29.152Z,95196.34
2023-05-11T02:11:32.533Z,95185.13
2023-05-11T02:14:35.668Z,95192.16
2023-05-11T02:17:39.450Z,95196.41
2023-05-11T02:20:43.954Z,95196.03
2023-05-11T02:23:47.995Z,95194.47
2023-05-11T02:26:49.844Z,95195.25
2023-05-11T02:29:51.585Z,95190.97
2023-05-11T02:32:57.351Z,95196.00
2023-05-11T02:36:00.229Z,95186.72
2023-05-11T02:39:06.132Z,95192.16
2023-05-11T02:42:13.852Z,95184.06
2023-05-11T02:45:18.708Z,95190.25
2023-05-11T02:48:26.529Z,95186.00
2023-05-11T02:51:32.729Z,95187.53
2023-05-11T02:54:35.253Z,95179.44
2023-05-11T02:57:37.767Z,95179.78
2023-05-11T03:00:39.835Z,95185.19
2023-05-11T03:03:43.038Z,95177.88
2023-05-11T03:06:44.879Z,95172.06
2023-05-11T03:09:46.711Z,95176.72
2023-05-11T03:12:48.454Z,95171.31
2023-05-11T03:15:51.344Z,95175.56
2023-05-11T03:18:54.902Z,95176.72
2023-05-11T03:21:58.800Z,95170.56
2023-05-11T03:25:02.591Z,95165.13
2023-05-11T03:28:06.407Z,95165.94
2023-05-11T03:31:08.208Z,95164.75
2023-05-11T03:34:11.338Z,95170.50
2023-05-11T03:37:14.658Z,95163.94
2023-05-11T03:40:19.682Z,95160.09
2023-05-11T03:43:22.312Z,95175.16
2023-05-11T03:46:25.398Z,95163.97
2023-05-11T03:49:29.490Z,95160.88
2023-05-11T03:52:31.663Z,95165.13
2023-05-11T03:55:33.480Z,95153.94
2023-05-11T03:58:38.832Z,95154.72
2023-05-11T04:01:42.757Z,95160.50
2023-05-11T04:04:45.905Z,95163.63
2023-05-11T04:07:47.697Z,95158.19
2023-05-11T04:10:49.343Z,95162.44
2023-05-11T04:13:51.010Z,95160.91
2023-05-11T04:16:52.817Z,95158.22
2023-05-11T04:19:55.955Z,95162.06
2023-05-11T04:22:57.702Z,95152.78
2023-05-11T04:25:59.411Z,95158.59
2023-05-11T04:29:01.045Z,95157.44
2023-05-11T04:32:02.807Z,95158.16
2023-05-11T04:35:06.252Z,95165.50
2023-05-11T04:38:07.909Z,95158.97
2023-05-11T04:41:09.580Z,95166.66
2023-05-11T04:44:11.706Z,95163.56
2023-05-11T04:47:14.275Z,95159.72
2023-05-11T04:50:17.586Z,95162.84
2023-05-11T04:53:19.444Z,95165.56
2023-05-11T04:56:21.214Z,95162.47
2023-05-11T04:59:23.035Z,95160.53
2023-05-11T05:02:24.883Z,95170.59
2023-05-11T05:05:28.073Z,95163.28
2023-05-11T05:08:29.698Z,95167.13
2023-05-11T05:11:31.405Z,95181.38
2023-05-11T05:14:33.289Z,95174.81
2023-05-11T05:17:35.058Z,95175.19
2023-05-11T05:20:38.172Z,95174.03
2023-05-11T05:23:39.808Z,95179.06
2023-05-11T05:26:41.497Z,95182.53
2023-05-11T05:29:43.185Z,95188.31
2023-05-11T05:32:44.868Z,95175.19
2023-05-11T05:35:47.941Z,95177.88
2023-05-11T05:38:49.619Z,95181.38
2023-05-11T05:41:52.000Z,95177.13
2023-05-11T05:44:53.658Z,95183.28
2023-05-11T05:47:55.409Z,95184.81
2023-05-11T05:50:58.954Z,95193.31
2023-05-11T05:54:00.735Z,95192.94
2023-05-11T05:57:02.408Z,95192.56
2023-05-11T06:00:04.845Z,95183.69
2023-05-11T06:03:06.683Z,95186.78
2023-05-11T06:06:09.726Z,95195.28
2023-05-11T06:09:11.391Z,95200.69
2023-05-11T06:12:13.060Z,95200.28
2023-05-11T06:15:14.820Z,95193.34
2023-05-11T06:18:16.543Z,95194.91
2023-05-11T06:21:19.826Z,95204.13
2023-05-11T06:24:21.519Z,95204.13
2023-05-11T06:27:23.199Z,95199.88
2023-05-11T06:30:24.835Z,95204.13
2023-05-11T06:33:26.570Z,95203.75
2023-05-11T06:36:29.606Z,95198.34
2023-05-11T06:39:31.272Z,95204.13
2023-05-11T06:42:32.920Z,95198.34
2023-05-11T06:45:34.616Z,95204.88
2023-05-11T06:48:36.329Z,95199.91
2023-05-11T06:51:39.387Z,95203.38
2023-05-11T06:54:41.119Z,95202.22
2023-05-11T06:57:42.831Z,95207.59
2023-05-11T07:00:44.528Z,95202.56
2023-05-11T07:03:46.905Z,95212.22
2023-05-11T07:06:49.944Z,95209.16
2023-05-11T07:09:51.607Z,95211.47
2023-05-11T07:12:53.612Z,95207.59
2023-05-11T07:15:57.364Z,95204.53
2023-05-11T07:18:59.492Z,95201.81
2023-05-11T07:22:02.712Z,95206.47
2023-05-11T07:25:04.804Z,95213.78
2023-05-11T07:28:06.608Z,95210.72
2023-05-11T07:31:08.317Z,95210.31
2023-05-11T07:34:10.078Z,95219.19
2023-05-11T07:37:13.116Z,95216.09
2023-05-11T07:40:14.856Z,95216.88
2023-05-11T07:43:16.564Z,95221.13
2023-05-11T07:46:18.289Z,95216.09
2023-05-11T07:49:25.495Z,95218.44
2023-05-11T07:52:34.284Z,95216.09
2023-05-11T07:55:35.998Z,95221.13
2023-05-11T07:58:37.683Z,95222.28
2023-05-11T08:01:39.483Z,95219.56
2023-05-11T08:04:41.430Z,95216.09
2023-05-11T08:07:44.572Z,95209.94
2023-05-11T08:10:46.227Z,95203.78
2023-05-11T08:13:47.940Z,95206.84
2023-05-11T08:16:49.813Z,95211.88
2023-05-11T08:19:51.526Z,95206.84
2023-05-11T08:22:54.804Z,95210.72
2023-05-11T08:25:56.650Z,95206.47
2023-05-11T08:28:58.359Z,95209.56
2023-05-11T08:32:00.161Z,95209.94
2023-05-11T08:35:02.187Z,95209.94
2023-05-11T08:38:05.457Z,95208.03
2023-05-11T08:41:07.477Z,95206.84
2023-05-11T08:44:10.614Z,95225.38
2023-05-11T08:50:17.320Z,95213.81
2023-05-11T08:53:20.483Z,95214.59
2023-05-11T08:56:22.200Z,95204.50
2023-05-11T08:59:25.780Z,95212.25
2023-05-11T09:02:28.915Z,95214.16
2023-05-11T09:05:31.858Z,95209.53
2023-05-11T09:08:35.629Z,95215.38
2023-05-11T09:11:37.732Z,95212.25
2023-05-11T09:14:39.449Z,95213.41
2023-05-11T09:17:41.164Z,95210.31
2023-05-11T09:20:44.076Z,95211.84
2023-05-11T09:23:49.224Z,95213.00
2023-05-11T09:27:06.437Z,95210.69
2023-05-11T09:30:12.709Z,95212.22
2023-05-11T09:33:21.441Z,95209.91
2023-05-11T09:36:23.642Z,95207.19
2023-05-11T09:39:38.278Z,95206.03
2023-05-11T09:42:45.731Z,95210.28
2023-05-11T09:45:48.689Z,95200.59
2023-05-11T09:48:58.385Z,95202.94
2023-05-11T09:52:01.193Z,95204.88
2023-05-11T09:55:10.617Z,95202.94
2023-05-11T09:58:12.365Z,95198.69
2023-05-11T10:01:14.247Z,95203.31
2023-05-11T10:07:27.135Z,95196.06
2023-05-11T10:10:31.167Z,95193.34
2023-05-11T10:13:34.204Z,95194.50
2023-05-11T10:16:36.044Z,95194.47
2023-05-11T10:19:38.224Z,95184.03
2023-05-11T10:22:40.092Z,95191.38
2023-05-11T10:25:44.436Z,95193.72
2023-05-11T10:28:46.196Z,95188.28
2023-05-11T10:31:48.561Z,95181.69
2023-05-11T10:34:50.371Z,95183.56
2023-05-11T10:37:52.194Z,95185.09
2023-05-11T10:41:06.846Z,95175.47
2023-05-11T10:44:40.967Z,95178.56
2023-05-11T10:48:12.678Z,95176.69
2023-05-11T10:51:43.238Z,95165.94
2023-05-11T10:54:49.868Z,95166.28
2023-05-11T10:58:07.238Z,95166.63
2023-05-11T11:01:39.693Z,95162.81
2023-05-11T11:04:43.243Z,95158.19
2023-05-11T11:07:57.020Z,95157.81
2023-05-11T11:10:58.739Z,95152.03
2023-05-11T11:14:03.773Z,95156.66
2023-05-11T11:17:25.230Z,95152.06
2023-05-11T11:20:51.712Z,95165.94
2023-05-11T11:23:53.412Z,95155.94
2023-05-11T11:26:55.096Z,95157.44
2023-05-11T11:30:18.219Z,95159.00
2023-05-11T11:33:33.897Z,95154.75
2023-05-11T11:37:01.122Z,95153.97
2023-05-11T11:40:13.942Z,95155.50
2023-05-11T11:43:18.098Z,95159.78
2023-05-11T11:46:28.595Z,95150.50
2023-05-11T11:49:31.442Z,95147.41
2023-05-11T11:52:33.977Z,95147.84
2023-05-11T11:55:46.509Z,95150.50
2023-05-11T11:58:58.394Z,95143.91
2023-05-11T12:02:02.111Z,95144.31
2023-05-11T12:05:11.500Z,95140.88
2023-05-11T12:08:16.092Z,95141.63
2023-05-11T12:11:17.870Z,95134.31
2023-05-11T12:14:20.154Z,95136.25
2023-05-11T12:17:27.450Z,95131.22
2023-05-11T12:20:29.179Z,95130.06
2023-05-11T12:23:33.663Z,95135.53
2023-05-11T12:26:37.276Z,95131.22
2023-05-11T12:29:38.966Z,95132.38
2023-05-11T12:32:42.049Z,95126.19
2023-05-11T12:35:43.950Z,95125.44
2023-05-11T12:38:46.554Z,95127.34
2023-05-11T12:41:54.039Z,95125.78
2023-05-11T12:44:55.882Z,95123.84
2023-05-11T12:47:59.494Z,95120.78
2023-05-11T12:51:01.251Z,95118.06
2023-05-11T12:54:02.945Z,95111.53
2023-05-11T12:57:05.998Z,95115.81
2023-05-11T13:00:09.930Z,95115.47
2023-05-11T13:03:13.140Z,95118.53
2023-05-11T13:06:19.713Z,95109.66
2023-05-11T15:11:45.550Z,95069.16
2023-05-11T15:14:49.812Z,95067.19
2023-05-11T15:17:51.691Z,95072.63
2023-05-11T15:20:55.862Z,95069.16
2023-05-11T15:24:00.374Z,95079.97
2023-05-11T15:27:05.099Z,95071.88
2023-05-11T15:30:08.014Z,95075.28
2023-05-11T15:33:10.593Z,95079.94
2023-05-11T15:36:14.335Z,95071.06
2023-05-11T15:39:17.772Z,95075.72
2023-05-11T15:42:23.615Z,95068.03
2023-05-11T15:45:25.921Z,95072.59
2023-05-11T15:48:30.131Z,95076.06
2023-05-11T15:51:32.476Z,95077.63
2023-05-11T15:54:35.970Z,95079.53
2023-05-11T15:57:40.118Z,95076.88
2023-05-11T16:00:44.607Z,95074.94
2023-05-11T16:03:46.943Z,95076.44
2023-05-11T16:06:48.795Z,95069.47
2023-05-11T16:09:50.612Z,95072.19
2023-05-11T16:12:53.818Z,95081.84
2023-05-11T16:15:56.154Z,95080.28
2023-05-11T16:19:01.501Z,95077.19
2023-05-11T16:22:03.595Z,95083.72
2023-05-11T16:25:05.833Z,95082.59
2023-05-11T16:28:09.250Z,95083.31
2023-05-11T16:31:11.543Z,95077.91
2023-05-11T16:34:15.208Z,95080.59
2023-05-11T16:37:17.012Z,95084.47
2023-05-11T16:40:19.217Z,95080.13
2023-05-11T16:43:23.103Z,95087.88
2023-05-11T16:46:28.161Z,95083.25
2023-05-11T16:49:33.022Z,95082.97
2023-05-11T16:52:36.432Z,95082.53
2023-05-11T16:55:39.562Z,95089.78
2023-05-11T16:58:43.609Z,95084.41
2023-05-11T17:01:46.365Z,95080.19
2023-05-11T17:04:49.136Z,95083.22
2023-05-11T17:07:52.375Z,95079.34
2023-05-11T17:10:56.038Z,95090.22
2023-05-11T17:14:03.334Z,95082.16
2023-05-11T17:17:08.121Z,95084.09
2023-05-11T17:20:11.846Z,95082.13
2023-05-11T17:23:14.308Z,95089.16
2023-05-11T17:26:16.801Z,95086.03
2023-05-11T17:29:21.854Z,95089.88
2023-05-11T17:32:24.673Z,95089.13
2023-05-11T17:35:27.951Z,95090.66
2023-05-11T17:38:30.471Z,95089.88
2023-05-11T17:41:34.092Z,95089.16
2023-05-11T17:44:41.082Z,95101.09
2023-05-11T17:47:44.543Z,95094.16
2023-05-11T17:50:47.061Z,95099.16
2023-05-11T17:53:50.266Z,95098.78
2023-05-11T17:56:52.860Z,95090.34
2023-05-11T17:59:57.726Z,95092.69
2023-05-11T18:03:00.656Z,95093.84
2023-05-11T18:06:06.264Z,95095.78
2023-05-11T18:09:10.515Z,95101.94
2023-05-11T18:12:14.373Z,95096.13
2023-05-11T18:15:18.306Z,95098.81
2023-05-11T18:18:21.916Z,95097.31
2023-05-11T18:21:24.984Z,95098.88
2023-05-11T18:24:27.987Z,95108.50
2023-05-11T18:27:31.958Z,95097.31
2023-05-11T18:30:35.839Z,95106.19
2023-05-11T18:33:41.601Z,95108.50
2023-05-11T18:36:45.138Z,95115.06
2023-05-11T18:39:47.648Z,95120.09
2023-05-11T18:42:53.156Z,95127.03
2023-05-11T18:45:57.033Z,95121.22
2023-05-11T18:49:00.891Z,95125.50
2023-05-11T18:52:04.531Z,95125.88
2023-05-11T18:55:09.744Z,95125.09
2023-05-11T18:58:12.772Z,95134.72
2023-05-11T19:01:17.059Z,95137.44
2023-05-11T19:04:19.981Z,95137.03
2023-05-11T19:07:25.255Z,95140.91
2023-05-11T19:10:28.063Z,95147.88
2023-05-11T19:13:31.844Z,95150.91
2023-05-11T19:16:35.971Z,95152.47
2023-05-11T19:19:39.956Z,95149.75
2023-05-11T19:22:42.719Z,95154.41
2023-05-11T19:25:45.334Z,95158.66
2023-05-11T19:28:47.931Z,95159.44
2023-05-11T19:31:52.005Z,95159.81
2023-05-11T19:34:54.988Z,95161.75
2023-05-11T19:37:58.905Z,95167.56
2023-05-11T19:41:01.927Z,95157.91
2023-05-11T19:44:04.466Z,95164.06
2023-05-11T19:47:08.745Z,95164.06
2023-05-11T19:50:12.520Z,95172.16
2023-05-11T19:53:15.019Z,95172.94
2023-05-11T19:56:17.477Z,95166.00
2023-05-11T19:59:19.922Z,95171.78
2023-05-11T20:02:24.196Z,95174.84
2023-05-11T20:05:27.758Z,95160.59
2023-05-11T20:08:31.276Z,95161.38
2023-05-11T20:11:33.785Z,95172.16
2023-05-11T20:14:36.148Z,95170.22
2023-05-11T20:17:40.034Z,95169.09
2023-05-11T20:20:44.065Z,95158.69
2023-05-11T20:23:46.573Z,95166.41
2023-05-11T20:26:48.960Z,95163.31
2023-05-11T20:29:51.391Z,95157.53
2023-05-11T20:36:01.652Z,95148.66
2023-05-11T20:39:04.762Z,95142.88
2023-05-11T20:42:07.305Z,95149.44
2023-05-11T20:45:11.053Z,95151.38
2023-05-11T20:48:14.684Z,95145.97
2023-05-11T20:51:16.826Z,95145.19
2023-05-11T20:54:19.336Z,95137.50
2023-05-11T20:57:21.409Z,95144.44
2023-05-11T21:00:23.498Z,95138.66
2023-05-11T21:03:27.062Z,95137.09
2023-05-11T21:06:28.990Z,95133.25
2023-05-11T21:09:34.434Z,95145.19
2023-05-11T21:12:37.371Z,95135.16
2023-05-11T21:15:39.157Z,95142.88
2023-05-11T21:18:44.553Z,95136.31
2023-05-11T21:21:47.760Z,95133.63
2023-05-11T21:24:51.726Z,95141.34
2023-05-11T21:27:53.440Z,95135.56
2023-05-11T21:30:55.958Z,95130.16
2023-05-11T21:34:01.953Z,95132.84
2023-05-11T21:37:06.361Z,95129.78
2023-05-11T21:40:10.765Z,95127.88
2023-05-11T21:43:14.223Z,95125.53
2023-05-11T21:46:15.912Z,95136.72
2023-05-11T21:49:21.434Z,95131.69
2023-05-11T21:52:24.184Z,95133.63
2023-05-11T21:55:25.872Z,95138.66
2023-05-11T21:58:27.776Z,95137.47
2023-05-11T22:01:29.522Z,95135.16
2023-05-11T22:04:33.086Z,95129.41
2023-05-11T22:07:35.141Z,95137.50
2023-05-11T22:10:36.960Z,95127.06
2023-05-11T22:13:39.508Z,95129.78
2023-05-11T22:16:41.568Z,95136.31
2023-05-11T22:19:45.922Z,95139.78
2023-05-11T22:22:48.647Z,95130.53
2023-05-11T22:25:53.462Z,95126.28
2023-05-11T22:28:57.741Z,95133.63
2023-05-11T22:32:01.884Z,95131.31
2023-05-11T22:35:06.079Z,95123.97
2023-05-11T22:38:10.345Z,95132.88
2023-05-11T22:41:12.176Z,95127.47
2023-05-11T22:44:16.257Z,95122.47
2023-05-11T22:47:17.940Z,95128.22
2023-05-11T22:50:21.273Z,95125.53
2023-05-11T22:53:23.187Z,95117.81
2023-05-11T22:56:27.236Z,95122.84
2023-05-11T22:59:29.107Z,95116.66
2023-05-11T23:02:32.431Z,95114.00
2023-05-11T23:05:38.160Z,95115.13
2023-05-11T23:08:40.141Z,95108.97
2023-05-11T23:11:42.130Z,95112.06
2023-05-11T23:14:46.736Z,95107.41
2023-05-11T23:17:51.478Z,95119.75
2023-05-11T23:20:56.834Z,95105.47
2023-05-11T23:23:59.205Z,95107.03
2023-05-11T23:27:00.953Z,95100.47
2023-05-11T23:30:04.532Z,95105.50
2023-05-11T23:33:07.703Z,95108.19
2023-05-11T23:36:13.711Z,95098.94
2023-05-11T23:39:16.184Z,95109.72
2023-05-11T23:42:18.232Z,95104.34
2023-05-11T23:45:20.227Z,95099.72
2023-05-11T23:48:22.426Z,95096.25
2023-05-11T23:51:26.454Z,95103.94
2023-05-11T23:54:28.165Z,95101.63
2023-05-11T23:57:31.516Z,95102.78
